Startpagina
METAR-TAF:

METAR-TAF

Vliegvelden :

Tunis, Tunesië

Luchthaven Tunis-Carthage

breedte: 36-50N, lengte: 010-14E, hoogte: 3 m

Actueel weer

Dit bericht is 16 minuten geleden gemaakt, om 15:00 UTC
Wind 17 kt uit het oostzuidoosten
Temperatuur 28°C
Vochtigheid 48%
Druk 1016 hPa
Zicht 10 km of meer
geen wolken onder 1500 m en geen cumulonimbus

METAR: DTTA 221500Z 12017KT CAVOK 28/16 Q1016 NOSIG

Tijdstip: 16:16 (15:16 UTC)

Verwachting

Dit bericht is 4 uur en het 16 minuten geleden gemaakt, om 11:00 UTC
Verwachting geldig van 22 om 12 UTC tot 23 om 12 UTC
Wind 10 kt uit het zuidzuidoosten
Zicht 10 km of meer
geen wolken onder 1500 m en geen cumulonimbus
Kans 40% :
Tijdelijke
van 22 om 16 UTC tot 22 om 24 UTC
Wind 20 kt uit het zuidoosten

TAF: DTTA 221100Z 2212/2312 15010KT CAVOK PROB40 TEMPO 2216/2224 14020KT

Waarnemingen en weersverwachtingen van meer dan 4000 vliegvelden (METAR en TAF).

De beschikbare stations zijn de gele en rode punten op de kaart.

Ga met uw muis naar het station om de naam te zien.

Klik dan om waarnemingen en weersverwachtingen te zien.

kaart wijzigen: klik op de groene knoppen met een zwart kruis om in te zoomen, op de groene knop met een streepje om uit te zoomen of op de groene pijlen voor aangrenzende kaarten.


METAR-TAF: